This is the latest recevied weather packets stored in our database for station/object DM1MT. If no packets are shown the sender has not sent any weather packets the latest 10 day(s).
| Time | Temp. | Humidity | Pressure | Rain* | Wind** | Luminosity | Snow |
|---|---|---|---|---|---|---|---|
| 1777465694 | 18.33° C | 26% | 1014.9 hPa | 0 mm | - | 357 W/m² | - |
| 1777459114 | 17.22° C | 27% | 1015.3 hPa | 0 mm | - | 330 W/m² | - |
| 1777451994 | 15° C | 31% | 1015.3 hPa | 0 mm | - | 236 W/m² | - |
| 1777448239 | 12.22° C | 43% | 1015.3 hPa | 0 mm | - | 158 W/m² | - |
| 1777443534 | 8.33° C | 52% | 1015.1 hPa | 0 mm | - | 78 W/m² | - |
| 1777436953 | 5.56° C | 59% | 1014.4 hPa | 0 mm | - | 8 W/m² | - |
| 1777431513 | 6.67° C | 57% | 1014 hPa | 0 mm | - | 0 W/m² | - |
| 1777430973 | 6.67° C | 57% | 1014.2 hPa | 0 mm | - | 0 W/m² | - |
| 1777430253 | 6.67° C | 57% | 1014 hPa | 0 mm | - | 0 W/m² | - |
| 1777429741 | 7.22° C | 56% | 1013.9 hPa | 0 mm | - | 0 W/m² | - |
| 1777429073 | 7.22° C | 55% | 1013.8 hPa | 0 mm | - | 0 W/m² | - |
| 1777428477 | 7.22° C | 55% | 1013.9 hPa | 0 mm | - | 0 W/m² | - |
| 1777424313 | 7.78° C | 53% | 1013.5 hPa | 0 mm | - | 0 W/m² | - |
| 1777423116 | 8.33° C | 54% | 1013.5 hPa | 0 mm | - | 0 W/m² | - |
| 1777420113 | 8.89° C | 53% | 1013.7 hPa | 0 mm | - | 0 W/m² | - |
| 1777418313 | 10° C | 51% | 1013.7 hPa | 0 mm | - | 0 W/m² | - |
| 1777417058 | 10.56° C | 48% | 1013.6 hPa | 0 mm | - | 0 W/m² | - |
| 1777409800 | 12.78° C | 47% | 1012.8 hPa | 0 mm | - | 0 W/m² | - |
| 1777406859 | 13.89° C | 45% | 1012.3 hPa | 0 mm | - | 0 W/m² | - |
| 1777404999 | 14.44° C | 44% | 1012 hPa | 0 mm | - | 0 W/m² | - |
| 1777404373 | 14.44° C | 43% | 1011.7 hPa | 0 mm | - | 0 W/m² | - |
| 1777400813 | 16.67° C | 41% | 1011 hPa | 0 mm | - | 17 W/m² | - |
| 1777398972 | 17.22° C | 40% | 1010.7 hPa | 0 mm | - | 93 W/m² | - |
| 1777391192 | 20° C | 39% | 1009.9 hPa | 0 mm | - | 275 W/m² | - |
| 1777390612 | 20.56° C | 38% | 1009.9 hPa | 0 mm | - | 288 W/m² | - |
* Rain latest hour (hover to see other rain measurements)
** Current wind speed in m/s (hover to see current wind gust speed)